This is the latest recevied weather packets stored in our database for station/object VE6KEE-13. If no packets are shown the sender has not sent any weather packets the latest 10 day(s).
| Time | Temp. | Humidity | Pressure | Rain* | Wind** | Luminosity | Snow |
|---|---|---|---|---|---|---|---|
| 1777426064 | 10° C | 29% | 1018.8 hPa | 0 mm | - | - | - |
| 1777425164 | 10.56° C | 29% | 1018.6 hPa | 0 mm | - | - | - |
| 1777424269 | 10.56° C | 29% | 1018.5 hPa | 0 mm | - | - | - |
| 1777423364 | 10.56° C | 28% | 1018.4 hPa | 0 mm | - | - | - |
| 1777422464 | 11.11° C | 28% | 1018.2 hPa | 0 mm | - | - | - |
| 1777421564 | 12.22° C | 26% | 1018.2 hPa | 0 mm | - | - | - |
| 1777420664 | 13.33° C | 25% | 1018.1 hPa | 0 mm | - | - | - |
| 1777419764 | 13.89° C | 24% | 1017.9 hPa | 0 mm | - | - | - |
| 1777418863 | 14.44° C | 23% | 1017.7 hPa | 0 mm | - | - | - |
| 1777417958 | 15° C | 23% | 1017.6 hPa | 0 mm | - | - | - |
| 1777417058 | 15° C | 22% | 1017.6 hPa | 0 mm | - | - | - |
| 1777416158 | 16.11° C | 22% | 1017.6 hPa | 0 mm | - | - | - |
| 1777415258 | 16.11° C | 22% | 1017.5 hPa | 0 mm | - | - | - |
| 1777414358 | 16.67° C | 21% | 1017.5 hPa | 0 mm | - | - | - |
| 1777413463 | 17.22° C | 22% | 1017.6 hPa | 0 mm | - | - | - |
| 1777412553 | 17.22° C | 21% | 1017.6 hPa | 0 mm | - | - | - |
| 1777411653 | 16.67° C | 22% | 1017.7 hPa | 0 mm | - | - | - |
| 1777410753 | 16.67° C | 23% | 1017.7 hPa | 0 mm | - | - | - |
| 1777409853 | 16.11° C | 22% | 1017.7 hPa | 0 mm | - | - | - |
| 1777408953 | 16.11° C | 24% | 1017.8 hPa | 0 mm | - | - | - |
| 1777408057 | 14.44° C | 24% | 1017.9 hPa | 0 mm | - | - | - |
| 1777407152 | 13.89° C | 23% | 1018 hPa | 0 mm | - | - | - |
| 1777406247 | 13.89° C | 24% | 1017.9 hPa | 0 mm | - | - | - |
| 1777405347 | 13.89° C | 25% | 1017.9 hPa | 0 mm | - | - | - |
| 1777404447 | 13.33° C | 24% | 1018 hPa | 0 mm | - | - | - |
* Rain since midnight (hover to see other rain measurements)
** Current wind speed in m/s (hover to see current wind gust speed)